Time;durP1;ratioP1;P1;durP2;ratioP2;P2;SDS_P1;SDS_P2;PMS_P1;PMS_P2;Temp;Humidity;BMP_temperature;BMP_pressure;BME280_temperature;BME280_humidity;BME280_pressure;Samples;Min_cycle;Max_cycle;Signal;HPM_P1;HPM_P2
2023/03/12 00:01:56;;;;;;;7.75;4.25;;;;;;;11.16;39.54;100926.06;4940836;28;20085;-62
2023/03/12 00:04:21;;;;;;;7.43;3.95;;;;;;;11.09;39.27;100918.53;4956718;28;20078;-62
2023/03/12 00:06:46;;;;;;;5.50;3.88;;;;;;;11.14;39.89;100925.34;4974799;28;20058;-62
2023/03/12 00:09:12;;;;;;;12.80;3.92;;;;;;;11.19;39.78;100923.13;4940853;28;20117;-62
2023/03/12 00:11:37;;;;;;;7.93;3.65;;;;;;;11.21;39.75;100926.50;4957340;28;20410;-62
2023/03/12 00:14:03;;;;;;;8.80;3.58;;;;;;;11.22;39.48;100922.84;4972858;28;20043;-62
2023/03/12 00:16:29;;;;;;;4.50;3.65;;;;;;;11.24;39.73;100918.22;4972824;28;20037;-62
2023/03/12 00:18:54;;;;;;;8.25;4.45;;;;;;;11.24;39.80;100928.94;4973165;28;20475;-62
2023/03/12 00:21:21;;;;;;;8.95;3.25;;;;;;;11.24;39.73;100915.53;4974330;28;20035;-63
2023/03/12 00:23:47;;;;;;;6.80;3.53;;;;;;;11.26;39.77;100918.91;4973941;28;20085;-62
2023/03/12 00:26:13;;;;;;;4.97;3.30;;;;;;;11.27;39.78;100920.63;4972719;28;20122;-63
2023/03/12 00:28:39;;;;;;;5.35;3.75;;;;;;;11.29;39.68;100913.28;4956623;28;20414;-63
2023/03/12 00:31:16;;;;;;;8.40;3.45;;;;;;;11.30;40.03;100923.06;4956643;28;20022;-62
2023/03/12 00:33:42;;;;;;;7.25;3.50;;;;;;;11.30;39.64;100912.31;4974424;28;20023;-62
2023/03/12 00:36:08;;;;;;;8.95;3.40;;;;;;;11.31;39.25;100912.19;4956851;28;20027;-62
2023/03/12 00:38:34;;;;;;;8.85;3.67;;;;;;;11.31;39.19;100909.50;4972843;28;20031;-62
2023/03/12 00:40:59;;;;;;;6.18;3.50;;;;;;;11.34;40.13;100909.22;4972480;28;20627;-62
2023/03/12 00:43:24;;;;;;;11.45;3.78;;;;;;;11.26;39.83;100890.28;4956550;28;20031;-63
2023/03/12 00:45:50;;;;;;;5.90;3.15;;;;;;;11.28;39.99;100890.16;4972971;28;20047;-62
2023/03/12 00:48:15;;;;;;;14.55;3.45;;;;;;;11.38;39.62;100891.06;4973777;28;20027;-62
2023/03/12 00:50:41;;;;;;;8.50;2.78;;;;;;;11.37;39.74;100903.59;4972456;28;20089;-62
2023/03/12 00:53:06;;;;;;;4.55;3.10;;;;;;;11.36;39.75;100893.84;4940417;28;20395;-63
2023/03/12 00:55:31;;;;;;;9.48;3.05;;;;;;;11.35;39.48;100902.03;4973593;28;20066;-62
2023/03/12 00:57:57;;;;;;;4.80;3.20;;;;;;;11.36;39.01;100893.03;4972835;28;20033;-62
2023/03/12 01:00:22;;;;;;;4.47;2.92;;;;;;;11.37;39.57;100886.66;4972557;28;20035;-62
2023/03/12 01:02:48;;;;;;;7.07;2.95;;;;;;;11.28;39.78;100872.22;4972577;28;20089;-62
2023/03/12 01:05:14;;;;;;;6.60;2.70;;;;;;;11.39;39.07;100877.50;4972553;28;20043;-62
2023/03/12 01:07:39;;;;;;;4.63;2.45;;;;;;;11.40;39.41;100873.00;4956292;28;20027;-62
2023/03/12 01:10:06;;;;;;;3.67;2.60;;;;;;;11.34;39.39;100858.28;4972605;28;20486;-62
2023/03/12 01:12:34;;;;;;;9.27;2.45;;;;;;;11.42;39.54;100876.38;4957180;28;20367;-62
2023/03/12 01:15:00;;;;;;;7.50;2.78;;;;;;;11.40;39.03;100870.31;4975100;28;20035;-63
2023/03/12 01:17:25;;;;;;;5.53;3.05;;;;;;;11.35;38.90;100853.78;4959869;28;20035;-62
2023/03/12 01:19:51;;;;;;;4.47;2.65;;;;;;;11.32;39.03;100854.91;4960121;28;20435;-62
2023/03/12 01:22:16;;;;;;;7.00;2.15;;;;;;;11.38;39.22;100864.25;4959795;28;20524;-62
2023/03/12 01:24:42;;;;;;;4.10;2.60;;;;;;;11.37;39.12;100851.81;4976031;28;20033;-62
2023/03/12 01:27:07;;;;;;;9.25;2.75;;;;;;;11.34;39.35;100860.09;4959484;28;20043;-63
2023/03/12 01:29:32;;;;;;;6.60;2.63;;;;;;;11.34;39.10;100860.09;4943550;28;20038;-62
2023/03/12 01:31:58;;;;;;;11.93;2.13;;;;;;;11.28;38.76;100837.34;4975622;28;20058;-62
2023/03/12 01:34:23;;;;;;;2.88;1.88;;;;;;;11.35;39.53;100843.91;4959326;28;20031;-62
2023/03/12 01:36:49;;;;;;;4.30;2.33;;;;;;;11.35;38.97;100843.03;4960172;28;20067;-62
2023/03/12 01:39:14;;;;;;;5.55;1.83;;;;;;;11.47;39.64;100850.03;4943544;28;20069;-62
2023/03/12 01:41:40;;;;;;;5.22;2.15;;;;;;;11.49;39.20;100840.88;4959233;28;20092;-62
2023/03/12 01:44:06;;;;;;;4.15;2.92;;;;;;;11.52;39.05;100837.06;4975330;28;20576;-62
2023/03/12 01:46:38;;;;;;;3.83;2.03;;;;;;;11.55;38.78;100847.53;4959034;28;20034;-62
2023/03/12 01:49:21;;;;;;;3.33;1.88;;;;;;;11.55;38.74;100834.97;4975358;28;20479;-62
2023/03/12 01:51:58;;;;;;;3.03;1.85;;;;;;;11.57;39.37;100824.94;4976087;28;20026;-62
2023/03/12 01:54:29;;;;;;;3.90;2.30;;;;;;;11.54;39.30;100824.34;4976778;28;20043;-62
2023/03/12 01:56:55;;;;;;;5.88;2.10;;;;;;;11.57;38.70;100835.66;4975386;28;20407;-63
2023/03/12 01:59:36;;;;;;;6.60;1.75;;;;;;;11.48;39.44;100811.47;4975110;28;20043;-62
2023/03/12 02:02:03;;;;;;;6.10;2.20;;;;;;;11.61;39.46;100828.22;4958984;28;20035;-62
2023/03/12 02:04:30;;;;;;;4.63;1.50;;;;;;;11.59;38.96;100824.78;4975039;28;20026;-62
2023/03/12 02:07:10;;;;;;;3.17;1.92;;;;;;;11.60;38.74;100821.13;4959225;28;20080;-62
2023/03/12 02:09:39;;;;;;;12.73;1.98;;;;;;;11.62;39.12;100820.00;4958967;28;20038;-63
2023/03/12 02:12:05;;;;;;;3.38;1.50;;;;;;;11.54;38.58;100802.91;4959499;28;20081;-62
2023/03/12 02:14:31;;;;;;;1.95;1.40;;;;;;;11.60;39.16;100794.31;4959043;28;20027;-63
2023/03/12 02:16:57;;;;;;;4.28;1.50;;;;;;;11.65;38.90;100789.38;4974868;28;20046;-62
2023/03/12 02:19:40;;;;;;;10.43;2.13;;;;;;;11.59;38.83;100781.88;4974879;28;20181;-62
2023/03/12 02:22:06;;;;;;;6.13;1.23;;;;;;;11.65;38.69;100790.22;4976064;28;20547;-62
2023/03/12 02:24:40;;;;;;;3.92;1.08;;;;;;;11.69;39.07;100782.78;4959264;28;20026;-62
2023/03/12 02:27:06;;;;;;;1.92;1.13;;;;;;;11.54;38.58;100754.59;4958165;28;20035;-62
2023/03/12 02:29:33;;;;;;;7.35;2.53;;;;;;;11.59;38.40;100760.41;4976251;28;20043;-62
2023/03/12 02:32:01;;;;;;;6.53;1.42;;;;;;;11.68;38.56;100775.69;4958982;28;20039;-63
2023/03/12 02:34:26;;;;;;;8.25;2.03;;;;;;;11.59;39.21;100760.41;4942847;28;20035;-63
2023/03/12 02:36:52;;;;;;;5.80;1.25;;;;;;;11.70;38.77;100772.91;4975803;28;20034;-62
2023/03/12 02:39:18;;;;;;;2.88;1.15;;;;;;;11.72;39.00;100766.41;4975702;28;20039;-62
2023/03/12 02:41:47;;;;;;;2.72;0.90;;;;;;;11.72;38.54;100766.41;4976780;28;20046;-62
2023/03/12 02:44:19;;;;;;;4.20;1.27;;;;;;;11.63;38.86;100754.66;4977757;28;20031;-62
2023/03/12 02:46:49;;;;;;;7.45;1.40;;;;;;;11.72;38.61;100761.06;4974902;28;20042;-63
2023/03/12 02:49:16;;;;;;;2.80;1.38;;;;;;;11.75;38.39;100771.50;4974759;28;20497;-63
2023/03/12 02:51:43;;;;;;;3.97;1.20;;;;;;;11.76;38.55;100773.19;4959297;28;20034;-62
2023/03/12 02:54:09;;;;;;;8.00;1.30;;;;;;;11.77;39.30;100777.59;4974378;28;20058;-62
2023/03/12 02:56:35;;;;;;;6.03;1.98;;;;;;;11.73;38.83;100775.28;4974733;28;20035;-62
2023/03/12 02:59:01;;;;;;;8.52;1.38;;;;;;;11.74;38.63;100777.00;4974630;28;20062;-63
2023/03/12 03:01:27;;;;;;;3.35;1.50;;;;;;;11.74;38.38;100774.31;4974899;28;20027;-62
2023/03/12 03:03:53;;;;;;;3.33;1.30;;;;;;;11.73;38.69;100768.09;4977061;28;20077;-62
2023/03/12 03:06:19;;;;;;;1.77;1.13;;;;;;;11.81;38.28;100770.94;4975040;28;20031;-62
2023/03/12 03:08:44;;;;;;;8.82;1.50;;;;;;;11.83;39.17;100771.66;4957885;28;20049;-63
2023/03/12 03:11:10;;;;;;;2.50;1.08;;;;;;;11.86;38.82;100767.84;4957886;28;20121;-63
2023/03/12 03:13:35;;;;;;;2.15;1.23;;;;;;;11.86;38.48;100766.03;4973735;28;20035;-62
2023/03/12 03:16:02;;;;;;;0.77;0.77;;;;;;;11.83;38.30;100752.88;4973699;28;20034;-65
2023/03/12 03:18:28;;;;;;;2.38;1.08;;;;;;;11.83;38.51;100752.88;4958338;28;20038;-63
2023/03/12 03:21:01;;;;;;;4.97;1.30;;;;;;;11.87;38.89;100754.28;4973545;28;20058;-62
2023/03/12 03:23:26;;;;;;;3.70;1.55;;;;;;;11.86;39.35;100752.59;4957409;28;20027;-62
2023/03/12 03:25:52;;;;;;;7.05;1.38;;;;;;;11.86;38.36;100752.59;4957388;28;20521;-62
2023/03/12 03:28:21;;;;;;;3.85;1.23;;;;;;;11.90;38.98;100745.09;4973796;28;20030;-63
2023/03/12 03:30:46;;;;;;;6.50;1.15;;;;;;;11.89;39.30;100735.38;4957989;28;20046;-62
2023/03/12 03:33:12;;;;;;;4.18;1.27;;;;;;;11.91;38.72;100738.75;4941497;28;20035;-62
2023/03/12 03:35:38;;;;;;;4.90;1.17;;;;;;;11.93;38.61;100743.00;4973385;28;20118;-62
2023/03/12 03:38:03;;;;;;;1.80;0.93;;;;;;;11.95;38.45;100746.38;4956528;28;20030;-62
2023/03/12 03:40:29;;;;;;;3.20;1.30;;;;;;;11.96;38.63;100741.88;4973447;28;20589;-63
2023/03/12 03:42:55;;;;;;;1.50;1.02;;;;;;;11.96;39.03;100742.72;4973665;28;20039;-62
2023/03/12 03:45:20;;;;;;;1.42;0.75;;;;;;;11.95;39.33;100745.56;4957105;28;20094;-63
2023/03/12 03:47:46;;;;;;;3.50;1.10;;;;;;;11.93;39.02;100743.00;4973440;28;20059;-62
2023/03/12 03:50:11;;;;;;;4.55;1.50;;;;;;;11.84;38.56;100727.72;4973134;28;20117;-62
2023/03/12 03:52:37;;;;;;;4.68;1.33;;;;;;;11.92;38.77;100741.28;4973349;28;20089;-62
2023/03/12 03:55:03;;;;;;;1.98;1.10;;;;;;;11.93;39.39;100743.00;4973963;28;20452;-63
2023/03/12 03:57:28;;;;;;;3.65;1.45;;;;;;;11.94;38.62;100733.09;4989811;28;20034;-62
2023/03/12 03:59:54;;;;;;;4.00;1.30;;;;;;;11.95;38.69;100727.59;4972971;28;20042;-62
2023/03/12 04:02:19;;;;;;;4.80;0.95;;;;;;;11.96;38.42;100731.97;4974345;28;20051;-62
2023/03/12 04:04:45;;;;;;;3.63;1.08;;;;;;;11.99;38.76;100725.47;4972907;28;20446;-62
2023/03/12 04:07:10;;;;;;;2.72;1.00;;;;;;;12.02;39.41;100725.19;4973142;28;20072;-62
2023/03/12 04:09:36;;;;;;;6.03;1.30;;;;;;;11.86;39.75;100709.66;4973339;28;20038;-62
2023/03/12 04:12:01;;;;;;;4.65;1.25;;;;;;;12.00;38.98;100722.66;4974039;28;20410;-63
2023/03/12 04:14:27;;;;;;;2.20;0.82;;;;;;;12.05;39.05;100724.91;4972766;28;20042;-62
2023/03/12 04:16:52;;;;;;;2.85;1.65;;;;;;;12.06;38.85;100724.75;4972983;28;20537;-62
2023/03/12 04:19:18;;;;;;;4.90;0.95;;;;;;;12.03;39.02;100710.81;4956935;28;20086;-62
2023/03/12 04:21:44;;;;;;;4.50;1.10;;;;;;;11.81;38.81;100679.69;4973349;28;20215;-62
2023/03/12 04:24:13;;;;;;;1.27;1.10;;;;;;;11.92;39.60;100703.72;4972908;28;20403;-63
2023/03/12 04:26:38;;;;;;;2.63;1.30;;;;;;;11.84;39.39;100710.75;4972565;28;20031;-63
2023/03/12 04:29:04;;;;;;;3.42;1.08;;;;;;;11.82;40.01;100708.25;4988962;28;20046;-62
2023/03/12 04:31:29;;;;;;;3.95;1.17;;;;;;;11.71;39.63;100689.59;4974008;28;20035;-62
2023/03/12 04:33:54;;;;;;;1.17;0.93;;;;;;;11.77;39.68;100713.19;4972936;28;20145;-62
2023/03/12 04:36:20;;;;;;;4.20;1.50;;;;;;;11.63;40.33;100687.56;4988657;28;20114;-62
2023/03/12 04:38:45;;;;;;;2.65;1.35;;;;;;;11.61;39.61;100667.25;4988815;28;20045;-62
2023/03/12 04:41:13;;;;;;;3.78;1.10;;;;;;;11.61;40.12;100677.97;4972256;28;20035;-63
2023/03/12 04:43:38;;;;;;;2.05;1.42;;;;;;;11.58;39.88;100684.47;4972761;28;20049;-62
2023/03/12 04:46:04;;;;;;;4.18;1.30;;;;;;;11.61;39.85;100683.34;4972415;28;20515;-62
2023/03/12 04:48:29;;;;;;;4.15;1.67;;;;;;;11.57;40.62;100679.22;4957100;28;20498;-63
2023/03/12 04:50:55;;;;;;;3.80;1.35;;;;;;;11.56;40.34;100680.19;4960302;28;20034;-62
2023/03/12 04:53:20;;;;;;;4.05;1.40;;;;;;;11.56;40.66;100674.84;4976517;28;20067;-62
2023/03/12 04:55:46;;;;;;;4.07;1.48;;;;;;;11.56;40.78;100680.19;4992808;28;20066;-62
2023/03/12 04:58:11;;;;;;;3.53;1.60;;;;;;;11.49;41.20;100668.34;4992584;28;20505;-62
2023/03/12 05:00:38;;;;;;;3.88;1.60;;;;;;;11.58;40.91;100678.25;4993173;28;20085;-62
2023/03/12 05:03:04;;;;;;;9.25;1.70;;;;;;;11.46;40.70;100663.25;4976333;28;20193;-63
2023/03/12 05:05:29;;;;;;;1.55;1.13;;;;;;;11.51;40.32;100666.38;4977382;28;20035;-62
2023/03/12 05:07:55;;;;;;;4.78;1.63;;;;;;;11.54;40.62;100660.72;4976004;28;20041;-63
2023/03/12 05:10:20;;;;;;;4.30;1.50;;;;;;;11.65;41.11;100669.50;4975963;28;20035;-62
2023/03/12 05:12:45;;;;;;;5.75;1.48;;;;;;;11.67;40.97;100661.28;4977739;28;20047;-63
2023/03/12 05:15:11;;;;;;;5.95;1.40;;;;;;;11.68;40.53;100658.50;4975640;28;20081;-62
2023/03/12 05:17:36;;;;;;;3.67;1.25;;;;;;;11.70;41.11;100660.22;4975889;28;20043;-62
2023/03/12 05:20:03;;;;;;;5.35;1.25;;;;;;;11.60;40.61;100639.56;4975988;28;20093;-62
2023/03/12 05:22:29;;;;;;;4.00;2.58;;;;;;;11.70;41.22;100646.81;4976075;28;20041;-62
2023/03/12 05:24:54;;;;;;;3.83;1.55;;;;;;;11.71;41.03;100656.53;4976925;28;20026;-62
2023/03/12 05:27:20;;;;;;;3.00;1.27;;;;;;;11.73;41.35;100654.53;4993304;28;20379;-63
2023/03/12 05:29:45;;;;;;;4.68;1.67;;;;;;;11.72;41.51;100645.69;4959595;28;20039;-62
2023/03/12 05:32:11;;;;;;;8.30;1.80;;;;;;;11.71;41.13;100638.59;4975409;28;20046;-62
2023/03/12 05:34:36;;;;;;;2.28;1.00;;;;;;;11.70;41.31;100639.59;4975435;28;20415;-62
2023/03/12 05:37:01;;;;;;;2.90;1.30;;;;;;;11.62;40.96;100609.91;4976988;28;20084;-63
2023/03/12 05:39:27;;;;;;;3.65;1.10;;;;;;;11.71;41.27;100630.56;4975909;28;20034;-62
2023/03/12 05:41:55;;;;;;;2.20;1.75;;;;;;;11.65;40.86;100621.19;4959385;28;20043;-63
2023/03/12 05:44:21;;;;;;;2.28;1.85;;;;;;;11.72;41.89;100632.25;4975354;28;20070;-62
2023/03/12 05:46:46;;;;;;;3.88;1.42;;;;;;;11.66;41.56;100616.69;4958956;28;20055;-62
2023/03/12 05:49:12;;;;;;;15.90;1.67;;;;;;;11.64;41.77;100610.63;4959508;28;20038;-62
2023/03/12 05:51:37;;;;;;;5.65;1.33;;;;;;;11.76;41.27;100617.56;4960102;28;20046;-62
2023/03/12 05:54:03;;;;;;;10.65;1.30;;;;;;;11.79;41.53;100622.66;4976506;28;20507;-63
2023/03/12 05:56:28;;;;;;;2.55;1.38;;;;;;;11.81;41.48;100614.47;4976150;28;20525;-63
2023/03/12 05:58:54;;;;;;;4.72;1.23;;;;;;;11.84;41.19;100616.84;4959239;28;20046;-62
2023/03/12 06:01:22;;;;;;;6.10;1.35;;;;;;;11.86;41.57;100626.47;4975508;28;20041;-63
2023/03/12 06:03:48;;;;;;;2.50;1.50;;;;;;;11.80;41.00;100602.03;4959485;28;20089;-62
2023/03/12 06:06:14;;;;;;;3.38;1.38;;;;;;;11.81;41.52;100604.56;4975205;28;20039;-63
2023/03/12 06:08:39;;;;;;;3.53;1.52;;;;;;;11.81;41.61;100609.91;4975119;28;20034;-62
2023/03/12 06:11:05;;;;;;;4.70;1.58;;;;;;;11.91;41.53;100626.88;4974172;28;20129;-62
2023/03/12 06:13:30;;;;;;;2.63;1.30;;;;;;;11.91;41.49;100618.81;4955981;28;20126;-62
2023/03/12 06:16:38;;;;;;;9.82;1.50;;;;;;;11.91;42.32;100624.19;4959943;28;20062;-62
2023/03/12 06:19:04;;;;;;;6.57;2.20;;;;;;;11.87;41.94;100620.09;4971585;28;20047;-63
2023/03/12 06:21:31;;;;;;;3.03;1.75;;;;;;;11.90;41.52;100618.94;4939984;29;20114;-63
2023/03/12 06:23:57;;;;;;;2.97;1.25;;;;;;;11.90;42.34;100619.81;4970824;28;20035;-63
2023/03/12 06:26:23;;;;;;;3.78;1.65;;;;;;;11.82;42.38;100600.91;4974776;28;20035;-63
2023/03/12 06:28:49;;;;;;;3.63;2.05;;;;;;;11.85;42.62;100611.34;4958868;28;20041;-63
2023/03/12 06:31:15;;;;;;;7.57;2.30;;;;;;;11.93;42.39;100627.56;4959469;28;20073;-62
2023/03/12 06:33:41;;;;;;;3.78;1.63;;;;;;;11.94;42.20;100629.28;4975120;28;20031;-63
2023/03/12 06:36:08;;;;;;;4.50;1.55;;;;;;;11.85;42.68;100605.97;4958450;28;20049;-63
2023/03/12 06:38:33;;;;;;;7.05;2.20;;;;;;;11.94;42.90;100621.22;4974514;28;20073;-63
2023/03/12 06:41:08;;;;;;;5.78;2.00;;;;;;;11.86;42.47;100605.00;4974556;28;20066;-63
2023/03/12 06:43:34;;;;;;;7.25;1.42;;;;;;;11.96;42.58;100621.94;4958153;28;20513;-63
2023/03/12 06:46:01;;;;;;;6.32;2.15;;;;;;;12.00;43.33;100615.28;4974559;28;20125;-63
2023/03/12 06:48:28;;;;;;;7.03;1.70;;;;;;;12.03;43.22;100614.97;4958288;28;20126;-63
2023/03/12 06:50:54;;;;;;;6.68;1.40;;;;;;;12.05;42.58;100613.03;4974745;28;20037;-63
2023/03/12 06:53:24;;;;;;;2.45;1.65;;;;;;;12.06;43.12;100614.69;4975430;28;20043;-62
2023/03/12 06:55:50;;;;;;;4.95;1.67;;;;;;;12.09;42.60;100603.66;4943667;28;20129;-63
2023/03/12 06:58:16;;;;;;;6.53;1.67;;;;;;;12.14;42.96;100603.25;4958558;28;20038;-63
2023/03/12 07:00:41;;;;;;;4.82;1.92;;;;;;;12.16;43.50;100599.44;4975907;28;20034;-62
2023/03/12 07:03:07;;;;;;;5.13;1.88;;;;;;;12.14;42.79;100587.97;4976814;28;20406;-63
2023/03/12 07:05:32;;;;;;;3.38;1.70;;;;;;;12.27;42.71;100596.56;4959414;28;20031;-62
2023/03/12 07:07:58;;;;;;;3.17;1.50;;;;;;;12.25;42.67;100581.59;4958158;28;20035;-63
2023/03/12 07:10:24;;;;;;;4.75;1.88;;;;;;;12.30;42.83;100584.69;4974705;28;20107;-63
2023/03/12 07:12:49;;;;;;;3.17;1.52;;;;;;;12.40;42.83;100587.31;4974329;28;20055;-63
2023/03/12 07:15:15;;;;;;;6.35;1.85;;;;;;;12.47;43.60;100596.50;4941689;28;20047;-62
2023/03/12 07:17:40;;;;;;;6.55;2.08;;;;;;;12.47;43.36;100596.50;4974035;28;20038;-63
2023/03/12 07:20:06;;;;;;;5.07;2.42;;;;;;;12.45;43.54;100598.50;4974079;28;20038;-63
2023/03/12 07:22:32;;;;;;;8.52;2.53;;;;;;;12.41;43.12;100586.34;4973489;28;20078;-62
2023/03/12 07:24:57;;;;;;;3.67;2.20;;;;;;;12.50;44.04;100601.59;4973855;28;20018;-63
2023/03/12 07:27:23;;;;;;;2.00;1.83;;;;;;;12.54;44.61;100600.28;4957535;28;20045;-63
2023/03/12 07:29:48;;;;;;;3.78;1.85;;;;;;;12.55;43.68;100600.16;4973192;28;20058;-63
2023/03/12 07:32:13;;;;;;;5.47;2.05;;;;;;;12.58;44.20;100599.00;4957228;28;20097;-63
2023/03/12 07:34:39;;;;;;;2.67;1.90;;;;;;;12.60;43.53;100595.19;4956947;28;20503;-63
2023/03/12 07:37:04;;;;;;;6.88;2.28;;;;;;;12.62;44.91;100600.38;4957176;28;20038;-63
2023/03/12 07:39:30;;;;;;;5.28;2.45;;;;;;;12.69;44.65;100602.34;4973851;28;20039;-64
2023/03/12 07:41:55;;;;;;;7.80;2.35;;;;;;;12.66;44.79;100580.31;4974546;28;20046;-62
2023/03/12 07:44:21;;;;;;;3.22;2.25;;;;;;;12.79;44.82;100594.22;4973408;28;20034;-62
2023/03/12 07:46:46;;;;;;;8.82;2.85;;;;;;;12.74;44.99;100585.78;4957516;28;20051;-61
2023/03/12 07:49:12;;;;;;;6.18;2.53;;;;;;;12.82;44.42;100593.94;4973592;28;20038;-61
2023/03/12 07:51:37;;;;;;;5.85;2.95;;;;;;;12.76;44.91;100587.31;4962963;28;20042;-61
2023/03/12 07:54:02;;;;;;;2.97;2.05;;;;;;;12.83;44.73;100603.69;4941045;28;20035;-61
2023/03/12 07:56:28;;;;;;;4.55;2.08;;;;;;;12.87;45.31;100598.88;4973070;28;20035;-61
2023/03/12 07:58:54;;;;;;;7.38;2.70;;;;;;;12.90;45.13;100594.03;4973463;28;20043;-61
2023/03/12 08:01:20;;;;;;;4.20;2.33;;;;;;;12.88;45.80;100596.03;4973143;28;20391;-61
2023/03/12 08:03:45;;;;;;;5.45;2.42;;;;;;;12.93;45.52;100592.88;4974122;28;20109;-61
2023/03/12 08:06:10;;;;;;;7.40;2.78;;;;;;;12.92;45.42;100597.44;4957248;28;20104;-61
2023/03/12 08:08:40;;;;;;;4.20;2.85;;;;;;;13.03;46.26;100599.06;4973115;28;20564;-61
2023/03/12 08:11:06;;;;;;;3.20;2.13;;;;;;;13.06;45.94;100586.19;4957793;28;20062;-61
2023/03/12 08:13:31;;;;;;;2.90;2.50;;;;;;;13.02;45.56;100582.09;4974307;28;20062;-61
2023/03/12 08:15:57;;;;;;;3.67;2.60;;;;;;;13.12;45.75;100596.34;4957388;28;20053;-61
2023/03/12 08:18:23;;;;;;;3.70;2.53;;;;;;;13.20;45.60;100595.59;4972888;28;20525;-61
2023/03/12 08:20:53;;;;;;;9.52;2.58;;;;;;;13.16;46.39;100588.81;4957074;28;20054;-61
2023/03/12 08:23:19;;;;;;;4.00;2.42;;;;;;;13.26;45.53;100606.56;4956834;28;20058;-61
2023/03/12 08:25:46;;;;;;;5.57;2.80;;;;;;;13.30;46.07;100594.53;4976522;28;20498;-61
2023/03/12 08:28:11;;;;;;;4.15;2.08;;;;;;;13.34;46.60;100595.09;4976835;28;20030;-61
2023/03/12 08:30:37;;;;;;;4.15;3.13;;;;;;;13.38;45.79;100596.44;4976999;28;20089;-61
2023/03/12 08:33:03;;;;;;;4.35;2.92;;;;;;;13.45;46.18;100604.75;4976605;28;20038;-61
2023/03/12 08:35:29;;;;;;;3.40;2.58;;;;;;;13.52;45.96;100605.84;4959245;28;20043;-62
2023/03/12 08:37:55;;;;;;;5.43;2.67;;;;;;;13.53;46.28;100591.38;4959435;28;20058;-62
2023/03/12 08:40:22;;;;;;;4.05;2.08;;;;;;;13.69;47.10;100604.97;4960393;28;20065;-61
2023/03/12 08:42:47;;;;;;;3.03;2.22;;;;;;;13.71;46.22;100594.91;4977917;28;20034;-62
2023/03/12 08:45:14;;;;;;;6.53;3.00;;;;;;;13.66;46.14;100587.31;4960286;28;20495;-65
2023/03/12 08:47:40;;;;;;;4.97;1.90;;;;;;;13.72;46.54;100592.06;4976812;28;20518;-61
2023/03/12 08:50:07;;;;;;;5.05;2.38;;;;;;;13.89;47.02;100606.50;4960740;28;20073;-61
2023/03/12 08:52:32;;;;;;;4.57;2.28;;;;;;;13.92;46.91;100615.13;4960613;28;20045;-61
2023/03/12 08:54:58;;;;;;;6.00;2.60;;;;;;;13.96;46.67;100615.66;4960781;28;20426;-62
2023/03/12 08:57:23;;;;;;;2.55;2.10;;;;;;;13.98;46.65;100617.22;4976314;28;20031;-61
2023/03/12 08:59:48;;;;;;;7.57;3.15;;;;;;;13.93;48.02;100608.72;4976300;28;20042;-61
2023/03/12 09:02:14;;;;;;;2.63;2.03;;;;;;;14.06;47.35;100618.25;4944380;28;20043;-61
2023/03/12 09:04:39;;;;;;;4.65;1.85;;;;;;;14.14;46.53;100623.69;4977646;28;20035;-61
2023/03/12 09:07:05;;;;;;;7.35;2.60;;;;;;;14.09;47.57;100609.88;4960046;28;20050;-61
2023/03/12 09:09:31;;;;;;;4.80;2.80;;;;;;;14.13;46.92;100616.63;4944582;28;20039;-61
2023/03/12 09:11:56;;;;;;;4.90;2.13;;;;;;;14.18;47.03;100620.53;4960000;28;20031;-61
2023/03/12 09:14:22;;;;;;;5.03;2.50;;;;;;;14.29;47.34;100624.84;4977114;28;20081;-61
2023/03/12 09:16:48;;;;;;;7.88;3.03;;;;;;;14.25;48.22;100616.22;4959947;28;20159;-61
2023/03/12 09:19:13;;;;;;;8.82;3.05;;;;;;;14.38;47.50;100627.44;4975821;28;20022;-61
2023/03/12 09:21:39;;;;;;;11.07;3.97;;;;;;;14.43;48.63;100627.81;4976328;28;20065;-61
2023/03/12 09:24:05;;;;;;;6.88;3.33;;;;;;;14.43;47.68;100622.41;4975965;28;20045;-61
2023/03/12 09:26:30;;;;;;;12.13;3.10;;;;;;;14.61;48.64;100629.59;4959662;28;20039;-61
2023/03/12 09:28:57;;;;;;;5.25;2.97;;;;;;;14.62;48.31;100612.44;4975822;28;20035;-61
2023/03/12 09:31:23;;;;;;;12.68;4.13;;;;;;;14.76;47.51;100636.09;4959697;28;20030;-62
2023/03/12 09:33:48;;;;;;;9.98;3.97;;;;;;;14.75;47.54;100618.22;4976084;28;20406;-61
2023/03/12 09:36:13;;;;;;;8.82;3.83;;;;;;;14.94;47.15;100635.00;4958355;28;20081;-61
2023/03/12 09:38:39;;;;;;;10.57;4.10;;;;;;;15.03;47.85;100625.09;4959574;28;20407;-61
2023/03/12 09:41:05;;;;;;;8.35;3.55;;;;;;;15.11;49.08;100625.13;4975498;28;20041;-62
2023/03/12 09:43:51;;;;;;;13.38;4.68;;;;;;;15.22;49.09;100627.50;4975433;28;20026;-62
2023/03/12 09:46:23;;;;;;;22.30;8.25;;;;;;;15.29;47.64;100628.56;4959274;28;20042;-62
2023/03/12 09:48:50;;;;;;;11.75;4.63;;;;;;;15.36;47.70;100618.78;4975914;28;20026;-61
2023/03/12 09:51:33;;;;;;;10.60;5.07;;;;;;;15.36;48.49;100616.06;4959298;28;20534;-61
2023/03/12 09:54:02;;;;;;;24.20;9.40;;;;;;;15.42;48.51;100628.91;4958939;28;20046;-61
2023/03/12 09:56:28;;;;;;;18.55;5.43;;;;;;;15.54;48.53;100646.53;4959159;28;20046;-61
2023/03/12 09:58:55;;;;;;;21.13;7.03;;;;;;;15.52;48.98;100628.81;4975408;28;20039;-61
2023/03/12 10:01:35;;;;;;;22.50;8.43;;;;;;;15.60;47.79;100640.47;4975255;28;20025;-61
2023/03/12 10:04:23;;;;;;;17.25;6.43;;;;;;;15.78;48.62;100650.28;4975826;28;20019;-62
2023/03/12 10:07:08;;;;;;;16.15;5.68;;;;;;;15.79;48.01;100663.63;4974073;28;20158;-61
2023/03/12 10:10:00;;;;;;;10.93;4.18;;;;;;;15.84;48.06;100669.38;4959663;28;20054;-61
2023/03/12 10:12:31;;;;;;;23.60;5.78;;;;;;;15.89;48.74;100674.25;4958984;28;20041;-61
2023/03/12 10:15:15;;;;;;;20.40;4.75;;;;;;;15.85;48.87;100660.25;4991255;28;20035;-61
2023/03/12 10:18:26;;;;;;;19.60;4.32;;;;;;;15.99;48.33;100674.97;4976268;28;20126;-61
2023/03/12 10:21:07;;;;;;;23.90;7.70;;;;;;;16.04;48.13;100675.28;4968552;28;20122;-61
2023/03/12 10:23:33;;;;;;;23.50;6.97;;;;;;;16.11;48.38;100684.41;4976043;28;20030;-61
2023/03/12 10:25:58;;;;;;;32.72;8.20;;;;;;;16.14;49.27;100684.06;4976176;28;20453;-61
2023/03/12 10:28:32;;;;;;;25.50;9.15;;;;;;;16.19;49.46;100687.13;4976347;28;20035;-61
2023/03/12 10:31:01;;;;;;;37.53;10.13;;;;;;;16.24;49.19;100676.66;4975364;28;20031;-61
2023/03/12 10:33:49;;;;;;;27.92;7.57;;;;;;;16.31;49.48;100683.91;4959128;28;20046;-62
2023/03/12 10:36:17;;;;;;;31.55;9.13;;;;;;;16.35;48.21;100687.13;4975086;28;20049;-61
2023/03/12 10:38:43;;;;;;;28.92;7.53;;;;;;;16.35;49.15;100687.13;4958816;28;20038;-61
2023/03/12 10:41:24;;;;;;;15.13;5.28;;;;;;;16.41;49.56;100691.00;4958506;28;20041;-62
2023/03/12 10:43:49;;;;;;;20.20;5.68;;;;;;;16.36;49.69;100672.56;4974841;28;20039;-61
2023/03/12 10:46:20;;;;;;;25.27;6.53;;;;;;;16.52;49.23;100688.81;4957688;28;20065;-61
2023/03/12 10:48:46;;;;;;;22.40;5.97;;;;;;;16.57;49.24;100675.63;4976209;28;20048;-61
2023/03/12 10:51:12;;;;;;;20.23;5.22;;;;;;;16.72;47.83;100679.31;4991537;28;20034;-62
2023/03/12 10:53:41;;;;;;;19.65;5.38;;;;;;;16.92;48.48;100685.19;4975872;28;20093;-62
2023/03/12 10:56:10;;;;;;;24.13;5.32;;;;;;;17.09;48.76;100675.16;4990403;28;20039;-62
2023/03/12 10:58:40;;;;;;;22.70;4.57;;;;;;;17.43;47.26;100675.69;4990865;28;20094;-61
2023/03/12 11:01:18;;;;;;;23.80;4.57;;;;;;;17.78;48.29;100667.03;4990754;28;20057;-62
2023/03/12 11:03:44;;;;;;;21.02;5.00;;;;;;;18.20;47.67;100682.00;4975894;28;20073;-63
2023/03/12 11:06:23;;;;;;;19.85;4.97;;;;;;;18.75;46.71;100671.66;4974596;28;20502;-62
2023/03/12 11:09:06;;;;;;;26.33;4.72;;;;;;;19.36;46.73;100654.13;4974441;28;20034;-62
2023/03/12 11:11:34;;;;;;;15.32;3.95;;;;;;;19.96;45.71;100632.00;4976106;28;20506;-65
2023/03/12 11:14:26;;;;;;;17.70;4.13;;;;;;;20.89;45.39;100634.44;4960289;28;20155;-63
2023/03/12 11:16:52;;;;;;;12.00;3.85;;;;;;;21.30;45.07;100654.38;4975186;28;20118;-63
2023/03/12 11:19:32;;;;;;;13.95;3.55;;;;;;;21.15;44.97;100641.94;4974867;28;20051;-62
2023/03/12 11:22:06;;;;;;;18.30;4.57;;;;;;;21.03;45.39;100652.53;4990654;28;20022;-62
2023/03/12 11:24:32;;;;;;;17.10;4.75;;;;;;;20.85;46.25;100663.13;4990116;28;20037;-62
2023/03/12 11:27:13;;;;;;;14.55;4.10;;;;;;;20.66;45.53;100663.84;4959034;28;20039;-62